Date,TemperatureHighF,TemperatureAvgF,TemperatureLowF,DewpointHighF,DewpointAvgF,DewpointLowF,HumidityHigh,HumidityAvg,HumidityLow,PressureMaxIn,PressureMinIn,WindSpeedMaxMPH,WindSpeedAvgMPH,GustSpeedMaxMPH,PrecipitationSumIn
2013-1-1,56.0,54.1,52.0,47.1,44.1,39.0,73,69,59,29.78,29.56,14,8,17,0.03
2013-1-2,54.0,50.5,44.0,39.6,35.7,30.4,65,57,45,29.83,29.50,19,10,22,0.27
2013-1-3,46.0,42.2,38.0,35.6,31.5,27.6,68,66,62,29.94,29.77,18,11,22,0.16
2013-1-4,53.0,42.6,33.0,44.2,33.3,22.9,72,70,66,29.99,29.83,17,8,20,0.00
2013-1-5,51.0,41.7,32.0,42.3,32.9,24.0,72,71,69,30.07,29.93,13,6,17,0.00
2013-1-6,51.0,47.8,43.0,42.3,38.7,34.2,72,71,68,29.94,29.69,11,5,16,0.03
2013-1-7,51.0,46.8,40.0,42.3,37.4,29.5,72,70,65,30.05,29.77,26,14,31,0.00
2013-1-8,56.0,47.5,38.0,47.1,37.9,28.4,72,69,65,30.09,29.94,16,10,22,0.00
2013-1-9,61.0,56.2,50.0,51.9,45.5,36.6,72,68,59,30.01,29.92,16,7,20,0.00
2013-1-10,60.0,55.9,51.0,49.8,45.3,41.5,73,68,59,30.08,29.99,22,14,30,0.00
2013-1-11,67.0,58.4,50.0,52.6,43.8,38.6,70,59,47,30.05,29.73,20,10,25,0.18
2013-1-12,77.0,66.6,61.0,68.8,52.2,40.9,76,60,46,29.76,29.61,16,8,20,0.00
2013-1-13,71.0,61.3,55.0,59.5,47.0,38.2,69,60,45,29.77,29.65,13,6,19,0.00
2013-1-14,73.0,62.8,58.0,61.8,45.5,37.3,69,54,44,29.78,29.63,19,8,25,0.00
2013-1-15,61.0,60.3,59.0,43.3,42.6,40.9,54,52,51,29.76,29.72,7,6,10,0.00
2013-1-18,50.0,44.7,37.0,41.0,35.1,24.8,72,69,61,30.17,29.99,19,12,28,0.02
2013-1-19,53.0,45.5,37.0,44.2,35.9,27.8,72,69,61,30.17,29.85,14,7,17,0.00
2013-1-20,65.0,53.7,46.0,56.5,43.6,33.3,74,69,60,29.84,29.55,20,9,27,0.00
2013-1-21,62.0,51.7,42.0,53.6,43.0,32.9,74,72,70,29.72,29.47,19,8,25,0.00
2013-1-22,52.0,43.6,34.0,43.2,34.8,25.6,72,71,70,29.96,29.56,20,11,26,0.00
2013-1-23,44.0,35.7,28.0,35.2,27.2,20.1,72,71,70,30.08,29.78,19,11,23,0.00
2013-1-24,49.0,40.5,28.0,40.4,31.9,20.1,72,71,70,30.21,29.61,29,18,36,0.00
2013-1-25,42.0,31.5,25.0,32.2,22.9,17.6,73,70,65,30.23,29.81,22,13,29,0.07
2013-1-26,49.0,37.0,30.0,40.4,28.1,20.7,72,70,67,30.08,29.81,17,9,20,0.00
2013-1-27,42.0,35.0,27.0,32.9,25.7,17.5,71,69,65,30.23,30.08,25,13,32,0.00
2013-1-28,51.0,43.6,36.0,41.2,33.8,27.5,71,68,57,30.18,29.90,14,7,17,0.00
2013-1-29,71.0,58.1,48.0,61.1,42.7,28.4,72,57,39,29.89,29.68,19,9,23,0.00
2013-1-30,65.0,59.9,55.0,51.2,41.8,28.5,61,52,34,29.75,29.20,24,13,32,0.02
2013-1-31,62.0,52.3,46.0,46.5,42.1,37.1,73,69,54,29.73,29.12,38,18,53,0.49